Dundee, Ohio
Current Conditions -  °F | °C
As of 7:26 AM on Thursday 23 Oct 2014 (Local Time) from KPHD Reporting Station
Broken Clouds Broken Clouds  
Wind Chill: 43°   Ceiling: 800
Heat Index: 45°   Visibility: 9mi
Dew Point: 43°   Wind: 5mph
Humidity: 93%   Direction: 330°NNW
Pressure: 30.19"   Gusts: NA
Location:  40.59°N, 81.61°W
Report Text: KPHD 231126Z AUTO 33004KT 9SM BKN008 BKN021 07/06 A3019 RMK AO2 T00720061
Loading
Personal Weather Stations






























Interactive Weather Map
Tropical Storm Tracking
New forecast layout! Learn more

10-Day Weather Forecast

Advertisements
Track Severe Weather on mobile